Texas Valley, New York
Current Conditions -  °F | °C
As of 8:55 AM on Thursday 30 Oct 2014 (Local Time) from KN03 Reporting Station
Light Rain Light Rain  
Wind Chill: 40°   Ceiling: 2000
Heat Index: 43°   Visibility: 7mi
Dew Point: 37°   Wind: 5mph
Humidity: 81%   Direction: 270°W
Pressure: 30.03"   Gusts: NA
Location:  42.4596°N, 76.0658°W
Report Text: KN03 301255Z AUTO 27004KT 7SM -RA BKN020 OVC027 06/03 A3003 RMK AO2
Loading
Personal Weather Stations






























Interactive Weather Map
Tropical Storm Tracking
New forecast layout! Learn more

10-Day Weather Forecast

Advertisements
Track Severe Weather on mobile